Time;durP1;ratioP1;P1;durP2;ratioP2;P2;SDS_P1;SDS_P2;PMS_P1;PMS_P2;Temp;Humidity;BMP_temperature;BMP_pressure;BME280_temperature;BME280_humidity;BME280_pressure;Samples;Min_cycle;Max_cycle;Signal;HPM_P1;HPM_P2
2021/12/04 00:02:22;;;;;;;60.80;7.00;;;12.40;99.90;;;;;;4915102;29;20433;-83
2021/12/04 00:04:51;;;;;;;63.10;7.03;;;12.50;99.90;;;;;;4914621;29;20036;-82
2021/12/04 00:07:18;;;;;;;55.05;7.53;;;12.50;99.90;;;;;;4914982;29;20071;-82
2021/12/04 00:09:47;;;;;;;50.75;8.30;;;12.50;99.90;;;;;;4914299;29;20118;-83
2021/12/04 00:12:14;;;;;;;57.35;7.60;;;12.60;99.90;;;;;;4914815;29;20047;-84
2021/12/04 00:14:41;;;;;;;61.67;8.52;;;12.60;99.90;;;;;;4914643;29;20032;-84
2021/12/04 00:17:07;;;;;;;55.97;7.57;;;12.60;99.90;;;;;;4929340;29;20037;-84
2021/12/04 00:19:34;;;;;;;53.03;7.43;;;12.50;99.90;;;;;;4914760;29;20032;-84
2021/12/04 00:22:01;;;;;;;53.78;6.65;;;12.60;99.90;;;;;;4914462;29;20362;-84
2021/12/04 00:24:27;;;;;;;47.13;6.85;;;12.60;99.90;;;;;;4914215;29;20040;-84
2021/12/04 00:26:54;;;;;;;59.55;7.93;;;12.60;99.90;;;;;;4914468;29;20095;-83
2021/12/04 00:29:20;;;;;;;62.22;7.45;;;12.60;99.90;;;;;;4914462;29;20589;-83
2021/12/04 00:31:49;;;;;;;68.85;9.00;;;12.50;99.90;;;;;;4914445;29;20028;-84
2021/12/04 00:34:16;;;;;;;70.07;9.15;;;12.60;99.90;;;;;;4914664;29;20598;-83
2021/12/04 00:50:09;;;;;;;;;;;12.60;99.90;;;;;;4914741;29;20039;-83
2021/12/04 00:52:35;;;;;;;62.78;7.07;;;12.60;99.90;;;;;;4914404;29;20276;-83
2021/12/04 00:55:03;;;;;;;66.15;7.57;;;12.60;99.90;;;;;;4914106;29;20481;-83
2021/12/04 00:57:29;;;;;;;67.15;8.15;;;12.50;99.90;;;;;;4913887;29;20012;-82
2021/12/04 00:59:55;;;;;;;53.28;7.18;;;12.50;99.90;;;;;;4913797;29;20198;-83
2021/12/04 01:02:22;;;;;;;53.60;6.68;;;12.50;99.90;;;;;;4914189;29;20097;-83
2021/12/04 01:04:48;;;;;;;47.67;6.50;;;12.50;99.90;;;;;;4914140;29;20043;-83
2021/12/04 01:07:14;;;;;;;59.70;7.88;;;12.50;99.90;;;;;;4914300;29;20020;-83
2021/12/04 01:09:40;;;;;;;51.38;6.25;;;12.50;99.90;;;;;;4914428;29;20488;-83
2021/12/04 01:12:06;;;;;;;57.90;7.45;;;12.50;99.90;;;;;;4914190;29;20032;-83
2021/12/04 01:14:32;;;;;;;52.47;6.53;;;12.50;99.90;;;;;;4914402;29;20032;-83
2021/12/04 01:16:59;;;;;;;55.67;6.97;;;12.50;99.90;;;;;;4914014;29;20093;-83
2021/12/04 01:19:25;;;;;;;55.53;7.47;;;12.50;99.90;;;;;;4914106;29;20028;-84
2021/12/04 01:21:53;;;;;;;64.95;8.05;;;12.50;99.90;;;;;;4916911;29;20043;-84
2021/12/04 01:24:20;;;;;;;64.30;6.90;;;12.50;99.90;;;;;;4917492;29;20119;-84
2021/12/04 01:26:47;;;;;;;56.67;6.88;;;12.40;99.90;;;;;;4932105;29;20496;-84
2021/12/04 01:29:13;;;;;;;52.38;6.32;;;12.50;99.90;;;;;;4932278;29;20040;-83
2021/12/04 01:31:39;;;;;;;54.75;6.10;;;12.50;99.90;;;;;;4917617;29;20116;-83
2021/12/04 01:34:04;;;;;;;48.97;5.65;;;12.50;99.90;;;;;;4915975;29;20077;-83
2021/12/04 01:36:30;;;;;;;48.95;6.35;;;12.50;99.90;;;;;;4917388;29;20034;-83
2021/12/04 01:38:56;;;;;;;56.35;6.32;;;12.50;99.90;;;;;;4917219;29;20445;-83
2021/12/04 01:41:22;;;;;;;55.25;6.53;;;12.50;99.90;;;;;;4917180;29;20123;-83
2021/12/04 01:43:48;;;;;;;61.97;6.80;;;12.50;99.90;;;;;;4931739;29;20127;-83
2021/12/04 01:46:14;;;;;;;77.20;8.48;;;12.50;99.90;;;;;;4917296;29;20028;-83
2021/12/04 01:48:39;;;;;;;73.05;7.13;;;12.50;99.90;;;;;;4917345;29;20032;-83
2021/12/04 01:51:06;;;;;;;66.93;8.48;;;12.50;99.90;;;;;;4917050;29;20550;-83
2021/12/04 01:53:32;;;;;;;64.97;7.55;;;12.50;99.90;;;;;;4917020;29;20103;-83
2021/12/04 01:55:59;;;;;;;69.88;9.63;;;12.50;99.90;;;;;;4916808;29;20036;-83
2021/12/04 01:58:27;;;;;;;50.67;7.43;;;12.50;99.90;;;;;;4916679;29;20071;-82
2021/12/04 02:00:54;;;;;;;61.45;6.65;;;12.50;99.90;;;;;;4916632;29;20549;-82
2021/12/04 02:03:21;;;;;;;65.97;8.50;;;12.60;99.90;;;;;;4915645;29;20040;-83
2021/12/04 02:05:49;;;;;;;39.60;5.43;;;12.60;99.90;;;;;;4917002;29;20573;-83
2021/12/04 02:08:17;;;;;;;73.95;7.47;;;12.60;99.90;;;;;;4917036;29;20107;-84
2021/12/04 02:10:45;;;;;;;77.45;9.90;;;12.60;99.90;;;;;;4916806;29;20409;-83
2021/12/04 02:13:11;;;;;;;113.90;14.48;;;12.60;99.90;;;;;;4915452;29;20039;-84
2021/12/04 02:15:37;;;;;;;57.88;7.45;;;12.60;99.90;;;;;;4916807;29;20024;-83
2021/12/04 02:18:06;;;;;;;80.00;9.45;;;12.60;99.90;;;;;;4916696;29;20102;-84
2021/12/04 02:20:34;;;;;;;53.10;7.68;;;12.60;99.90;;;;;;4916864;29;20488;-86
2021/12/04 02:23:01;;;;;;;48.83;6.10;;;12.60;99.90;;;;;;4917043;29;20039;-86
2021/12/04 02:25:27;;;;;;;51.33;7.32;;;12.50;99.90;;;;;;4931442;29;20489;-87
2021/12/04 02:27:53;;;;;;;57.80;5.90;;;12.50;99.90;;;;;;4916893;29;20028;-87
2021/12/04 02:30:22;;;;;;;60.40;6.50;;;12.50;99.90;;;;;;4931075;29;20158;-88
2021/12/04 02:32:49;;;;;;;57.22;7.18;;;12.50;99.90;;;;;;4916624;29;20396;-88
2021/12/04 02:35:20;;;;;;;51.90;6.13;;;12.60;99.90;;;;;;4916420;29;20486;-88
2021/12/04 02:37:46;;;;;;;58.53;7.28;;;12.50;99.90;;;;;;4918121;29;20032;-88
2021/12/04 02:40:17;;;;;;;47.33;5.60;;;12.50;99.90;;;;;;4933113;29;20024;-88
2021/12/04 02:42:44;;;;;;;62.65;6.43;;;12.50;99.90;;;;;;4916668;29;20028;-89
2021/12/04 02:45:11;;;;;;;59.28;5.63;;;12.50;99.90;;;;;;4916741;29;20122;-89
2021/12/04 02:47:37;;;;;;;77.97;7.75;;;12.50;99.90;;;;;;4916337;29;20028;-87
2021/12/04 02:50:07;;;;;;;51.20;7.53;;;12.50;99.90;;;;;;4916233;29;20036;-86
2021/12/04 02:52:33;;;;;;;61.05;6.40;;;12.50;99.90;;;;;;4914682;29;20028;-86
2021/12/04 02:55:00;;;;;;;60.50;6.43;;;12.50;99.90;;;;;;4916698;29;20036;-87
2021/12/04 02:57:27;;;;;;;57.05;6.78;;;12.50;99.90;;;;;;4916056;29;20029;-85
2021/12/04 02:59:54;;;;;;;55.70;8.93;;;12.50;99.90;;;;;;4915678;29;20123;-84
2021/12/04 03:02:22;;;;;;;46.70;7.30;;;12.50;99.90;;;;;;4930406;29;20512;-84
2021/12/04 03:04:52;;;;;;;78.15;8.75;;;12.50;99.90;;;;;;4915810;29;20057;-85
2021/12/04 03:07:19;;;;;;;52.35;6.95;;;12.50;99.90;;;;;;4915821;29;20028;-86
2021/12/04 03:09:45;;;;;;;58.10;5.47;;;12.50;99.90;;;;;;4915619;29;20020;-86
2021/12/04 03:12:12;;;;;;;61.13;6.70;;;12.50;99.90;;;;;;4915824;29;20489;-88
2021/12/04 03:14:38;;;;;;;50.28;5.60;;;12.60;99.90;;;;;;4930657;29;20374;-86
2021/12/04 03:17:05;;;;;;;56.97;7.35;;;12.50;99.90;;;;;;4915565;29;20032;-85
2021/12/04 03:19:31;;;;;;;54.03;7.65;;;12.60;99.90;;;;;;4915846;29;20460;-84
2021/12/04 03:21:57;;;;;;;48.25;5.70;;;12.60;99.90;;;;;;4929836;29;20031;-83
2021/12/04 03:24:24;;;;;;;50.28;6.05;;;12.60;99.90;;;;;;4915520;29;20040;-83
2021/12/04 03:26:51;;;;;;;54.10;6.60;;;12.60;99.90;;;;;;4915590;29;20032;-84
2021/12/04 03:29:20;;;;;;;41.15;5.68;;;12.60;99.90;;;;;;4915353;29;20036;-85
2021/12/04 03:42:27;;;;;;;51.33;5.18;;;12.70;99.90;;;;;;4915050;29;20111;-84
2021/12/04 03:44:53;;;;;;;51.25;5.85;;;12.60;99.90;;;;;;4914715;29;20458;-84
2021/12/04 03:47:20;;;;;;;46.60;5.30;;;12.70;99.90;;;;;;4913606;29;20032;-84
2021/12/04 03:49:49;;;;;;;44.65;5.47;;;12.70;99.90;;;;;;4915048;29;20032;-84
2021/12/04 03:52:15;;;;;;;31.70;5.00;;;12.80;99.90;;;;;;4915175;29;20029;-85
2021/12/04 03:54:41;;;;;;;47.03;5.72;;;12.90;99.90;;;;;;4913514;29;20092;-85
2021/12/04 03:57:08;;;;;;;49.42;5.05;;;12.90;99.90;;;;;;4914968;29;20280;-85
2021/12/04 03:59:36;;;;;;;40.70;4.97;;;12.90;99.90;;;;;;4915035;29;20056;-84
2021/12/04 04:02:04;;;;;;;38.72;4.80;;;13.00;99.90;;;;;;4915272;29;20027;-85
2021/12/04 04:04:34;;;;;;;32.80;4.22;;;13.00;99.90;;;;;;4914984;29;20039;-85
2021/12/04 04:07:00;;;;;;;30.35;3.90;;;13.00;99.90;;;;;;4914752;29;20095;-85
2021/12/04 04:09:29;;;;;;;32.20;3.92;;;13.00;99.90;;;;;;4916598;29;20032;-85
2021/12/04 04:11:56;;;;;;;32.45;6.38;;;13.00;99.90;;;;;;4914869;29;20735;-85
2021/12/04 04:14:23;;;;;;;41.40;4.20;;;13.00;99.90;;;;;;4914833;29;20032;-85
2021/12/04 04:16:50;;;;;;;37.97;4.53;;;13.00;99.90;;;;;;4929220;29;20028;-85
2021/12/04 04:19:16;;;;;;;33.92;5.03;;;13.00;99.90;;;;;;4914434;29;20397;-85
2021/12/04 04:21:42;;;;;;;33.25;4.18;;;12.90;99.90;;;;;;4914681;29;20028;-87
2021/12/04 04:24:09;;;;;;;43.40;5.05;;;12.90;99.90;;;;;;4914861;29;20032;-85
2021/12/04 04:26:36;;;;;;;42.63;5.07;;;12.90;99.90;;;;;;4914875;29;20115;-84
2021/12/04 04:29:07;;;;;;;41.55;4.78;;;12.90;99.90;;;;;;4914898;29;20107;-85
2021/12/04 04:31:34;;;;;;;70.50;7.97;;;12.90;99.90;;;;;;4929635;29;20032;-84
2021/12/04 04:34:03;;;;;;;29.15;4.30;;;12.90;99.90;;;;;;4914686;29;20059;-84
2021/12/04 05:11:22;;;;;;;35.03;4.68;;;12.80;99.90;;;;;;4919166;29;20211;-83
2021/12/04 05:13:48;;;;;;;38.40;3.95;;;12.70;99.90;;;;;;4927292;29;20020;-83
2021/12/04 05:16:15;;;;;;;36.40;4.60;;;12.80;99.90;;;;;;4917836;29;20036;-83
2021/12/04 05:19:12;;;;;;;41.70;4.72;;;12.80;99.90;;;;;;4917824;29;20030;-83
2021/12/04 05:21:29;;;;;;;45.17;6.00;;;12.80;99.90;;;;;;4918460;29;20389;-83
2021/12/04 05:23:55;;;;;;;48.95;5.93;;;12.80;99.90;;;;;;4918006;29;20063;-83
2021/12/04 05:26:25;;;;;;;48.00;5.13;;;12.80;99.90;;;;;;4917735;29;20051;-83
2021/12/04 05:28:51;;;;;;;42.30;5.03;;;12.80;99.90;;;;;;4917706;29;20020;-83
2021/12/04 05:31:17;;;;;;;35.03;4.85;;;12.70;99.90;;;;;;4917608;29;20034;-83
2021/12/04 05:33:43;;;;;;;34.55;3.95;;;12.70;99.90;;;;;;4917538;29;20530;-83
2021/12/04 05:36:09;;;;;;;30.05;3.80;;;12.70;99.90;;;;;;4923562;29;20036;-82
2021/12/04 05:38:36;;;;;;;34.25;4.63;;;12.70;99.90;;;;;;4917419;29;20024;-83
2021/12/04 05:41:03;;;;;;;32.38;4.65;;;12.70;99.90;;;;;;4917409;29;20284;-83
2021/12/04 05:43:29;;;;;;;49.97;5.80;;;12.60;99.90;;;;;;4917440;29;20032;-83
2021/12/04 05:46:42;;;;;;;44.95;5.47;;;12.60;99.90;;;;;;4923603;29;20032;-83
2021/12/04 05:56:17;;;;;;;42.45;5.47;;;12.20;99.90;;;;;;4917195;29;20024;-83
2021/12/04 05:58:43;;;;;;;42.28;5.43;;;12.20;99.90;;;;;;4919036;29;20056;-83
2021/12/04 06:01:09;;;;;;;48.75;6.30;;;12.10;99.90;;;;;;4917777;29;20435;-84
2021/12/04 06:03:35;;;;;;;48.10;5.13;;;12.10;99.90;;;;;;4916856;29;20613;-84
2021/12/04 06:06:03;;;;;;;42.88;5.70;;;12.10;99.90;;;;;;4920650;29;20028;-84
2021/12/04 06:08:29;;;;;;;35.15;4.32;;;12.10;99.90;;;;;;4916929;29;20036;-84
2021/12/04 06:10:54;;;;;;;31.90;3.92;;;12.00;99.90;;;;;;4916815;29;20028;-84
2021/12/04 06:13:20;;;;;;;39.30;5.07;;;12.00;99.90;;;;;;4931240;29;20028;-83
2021/12/04 06:15:46;;;;;;;26.25;4.03;;;12.00;99.90;;;;;;4915596;29;20196;-84
2021/12/04 06:18:15;;;;;;;36.45;3.88;;;11.90;99.90;;;;;;4916962;29;20389;-83
2021/12/04 06:23:25;;;;;;;35.00;4.63;;;11.80;99.90;;;;;;4916987;29;20454;-84
2021/12/04 06:25:51;;;;;;;40.75;5.10;;;11.70;99.90;;;;;;4916781;29;20111;-84
2021/12/04 06:28:17;;;;;;;47.15;5.72;;;11.70;99.90;;;;;;4933607;29;20027;-84
2021/12/04 06:30:43;;;;;;;47.90;6.10;;;11.60;99.90;;;;;;4931078;29;20032;-84
2021/12/04 06:33:17;;;;;;;52.40;6.13;;;11.60;99.90;;;;;;4916519;29;20544;-84
2021/12/04 06:35:44;;;;;;;37.67;5.75;;;11.60;99.90;;;;;;4916509;29;20265;-85
2021/12/04 06:38:12;;;;;;;52.25;7.28;;;11.50;99.90;;;;;;4916317;29;20066;-85
2021/12/04 06:40:41;;;;;;;61.47;7.38;;;11.50;99.90;;;;;;4916543;29;20032;-85
2021/12/04 06:43:08;;;;;;;62.85;7.72;;;11.50;99.90;;;;;;4932816;29;20517;-85
2021/12/04 06:45:37;;;;;;;55.83;7.15;;;11.40;99.90;;;;;;4916269;29;20470;-85
2021/12/04 06:48:25;;;;;;;63.60;7.88;;;11.40;99.90;;;;;;4916346;29;20410;-85
2021/12/04 06:50:58;;;;;;;52.20;7.30;;;11.30;99.90;;;;;;4916692;29;20187;-85
2021/12/04 06:53:32;;;;;;;48.38;5.85;;;11.30;99.90;;;;;;4919103;29;20024;-86
2021/12/04 06:56:00;;;;;;;47.65;6.57;;;11.20;99.90;;;;;;4919086;29;20036;-86
2021/12/04 06:58:28;;;;;;;44.03;5.95;;;11.30;99.90;;;;;;4919611;29;20048;-87
2021/12/04 07:00:54;;;;;;;40.30;5.47;;;11.30;99.90;;;;;;4919573;29;20020;-87
2021/12/04 07:03:21;;;;;;;49.03;6.47;;;11.30;99.90;;;;;;4922217;29;20326;-87
2021/12/04 07:05:47;;;;;;;51.35;6.63;;;11.30;99.90;;;;;;4929290;29;20023;-87
2021/12/04 07:08:13;;;;;;;43.35;6.38;;;11.30;99.90;;;;;;4954533;29;20024;-87
2021/12/04 07:10:39;;;;;;;45.60;5.60;;;11.30;99.90;;;;;;4937555;29;20064;-87
2021/12/04 07:13:05;;;;;;;46.08;6.82;;;11.30;99.90;;;;;;4951993;28;20032;-86
2021/12/04 07:15:32;;;;;;;48.70;6.20;;;11.30;99.90;;;;;;4938391;28;20019;-88
2021/12/04 07:18:00;;;;;;;52.35;6.68;;;11.30;99.90;;;;;;4934202;29;20012;-88
2021/12/04 07:20:27;;;;;;;52.40;6.78;;;11.30;99.90;;;;;;4939698;28;20300;-89
2021/12/04 07:22:53;;;;;;;48.83;6.28;;;11.30;99.90;;;;;;4955796;28;20041;-89
2021/12/04 07:25:19;;;;;;;43.63;5.15;;;11.30;99.90;;;;;;4943722;28;20059;-90
2021/12/04 07:27:46;;;;;;;48.47;6.35;;;11.20;99.90;;;;;;4939767;28;20021;-90
2021/12/04 07:30:13;;;;;;;36.72;5.85;;;11.20;99.90;;;;;;4948834;28;20023;-90
2021/12/04 07:32:39;;;;;;;33.72;5.00;;;11.20;99.90;;;;;;4956742;28;20031;-91
2021/12/04 07:35:06;;;;;;;38.67;4.45;;;11.20;99.90;;;;;;4949877;28;20090;-91
2021/12/04 07:37:32;;;;;;;30.83;5.28;;;11.20;99.90;;;;;;4953196;28;20027;-92
2021/12/04 07:39:58;;;;;;;39.13;4.95;;;11.10;99.90;;;;;;4955148;28;20023;-91
2021/12/04 07:42:23;;;;;;;42.75;4.43;;;11.20;99.90;;;;;;4936259;29;20389;-92
2021/12/04 07:44:49;;;;;;;46.67;5.63;;;11.20;99.90;;;;;;4937080;29;20032;-91
2021/12/04 07:47:16;;;;;;;36.55;5.43;;;11.10;99.90;;;;;;4939226;29;20555;-91
2021/12/04 07:49:43;;;;;;;41.00;4.93;;;11.00;99.90;;;;;;4934551;29;20055;-93
2021/12/04 07:52:10;;;;;;;43.17;5.55;;;11.00;99.90;;;;;;4934717;29;20097;-91
2021/12/04 07:54:36;;;;;;;47.05;5.88;;;11.00;99.90;;;;;;4934631;29;20432;-91
2021/12/04 07:57:02;;;;;;;52.08;5.75;;;11.00;99.90;;;;;;4935500;29;20019;-91
2021/12/04 07:59:29;;;;;;;47.85;5.85;;;11.00;99.90;;;;;;4934098;29;20051;-91
2021/12/04 08:01:55;;;;;;;49.45;5.80;;;11.00;99.90;;;;;;4936631;29;20544;-92
2021/12/04 08:04:22;;;;;;;43.72;5.13;;;11.00;99.90;;;;;;4933867;29;20039;-91
2021/12/04 08:06:48;;;;;;;31.58;4.65;;;11.10;99.90;;;;;;4934822;29;20404;-91
2021/12/04 08:09:13;;;;;;;37.65;4.50;;;11.10;99.90;;;;;;4937295;29;20024;-91
2021/12/04 08:11:39;;;;;;;38.67;5.18;;;11.10;99.90;;;;;;4943270;29;20070;-92
2021/12/04 08:14:05;;;;;;;41.80;5.68;;;11.20;99.90;;;;;;4941504;29;20589;-91
2021/12/04 08:16:34;;;;;;;34.45;4.80;;;11.20;99.90;;;;;;4933684;29;20279;-92
2021/12/04 08:19:00;;;;;;;30.52;5.32;;;11.20;99.90;;;;;;4933622;29;20111;-91
2021/12/04 08:21:26;;;;;;;31.83;4.45;;;11.10;99.90;;;;;;4937726;29;20095;-92
2021/12/04 08:23:52;;;;;;;37.22;4.70;;;11.10;99.90;;;;;;4933477;29;20543;-91
2021/12/04 08:26:20;;;;;;;33.70;5.03;;;11.10;99.90;;;;;;4934926;29;20032;-92
2021/12/04 08:28:46;;;;;;;33.47;4.10;;;11.10;99.90;;;;;;4935901;28;20087;-92
2021/12/04 08:31:12;;;;;;;33.17;4.43;;;11.10;99.90;;;;;;4934982;29;20055;-93
2021/12/04 08:33:38;;;;;;;24.85;3.72;;;11.10;99.90;;;;;;4937182;28;20074;-92
2021/12/04 08:36:09;;;;;;;36.58;5.20;;;11.10;99.90;;;;;;4939948;28;20015;-93
2021/12/04 08:38:37;;;;;;;33.22;4.78;;;11.30;99.90;;;;;;4936217;29;20036;-93
2021/12/04 08:41:04;;;;;;;31.33;4.70;;;11.30;99.90;;;;;;4941924;29;20020;-92
2021/12/04 08:43:30;;;;;;;29.77;4.93;;;11.30;99.90;;;;;;4935196;29;20028;-92
2021/12/04 08:45:59;;;;;;;31.88;4.30;;;11.30;99.90;;;;;;4934580;29;20489;-91
2021/12/04 08:48:26;;;;;;;35.10;5.32;;;11.30;99.90;;;;;;4932439;29;20032;-91
2021/12/04 08:50:52;;;;;;;29.50;4.53;;;11.20;99.90;;;;;;4932274;29;20400;-92
2021/12/04 08:53:17;;;;;;;41.13;5.18;;;11.20;99.90;;;;;;4932375;29;20030;-93
2021/12/04 08:55:44;;;;;;;40.53;6.18;;;11.30;99.90;;;;;;4933251;29;20028;-93
2021/12/04 08:58:12;;;;;;;40.50;4.95;;;11.30;99.90;;;;;;4932006;29;20044;-92
2021/12/04 09:00:49;;;;;;;32.55;5.95;;;11.30;99.90;;;;;;4932174;29;20027;-92
2021/12/04 09:03:30;;;;;;;32.92;4.55;;;11.40;99.90;;;;;;4934954;29;20465;-92
2021/12/04 09:06:01;;;;;;;33.20;4.93;;;11.40;99.90;;;;;;4926692;29;20509;-93
2021/12/04 09:08:29;;;;;;;29.92;3.88;;;11.40;99.90;;;;;;4944178;29;20457;-91
2021/12/04 09:11:00;;;;;;;26.30;3.85;;;11.40;99.90;;;;;;4932975;29;20039;-92
2021/12/04 09:13:28;;;;;;;27.33;4.07;;;11.50;99.90;;;;;;4935362;29;20019;-92
2021/12/04 09:15:56;;;;;;;27.67;4.07;;;11.50;99.90;;;;;;4933421;29;20031;-92
2021/12/04 09:18:23;;;;;;;27.00;3.97;;;11.50;99.90;;;;;;4938768;29;20031;-92
2021/12/04 09:20:50;;;;;;;28.85;4.88;;;11.60;99.90;;;;;;4934089;29;20027;-92
2021/12/04 09:23:18;;;;;;;39.58;4.05;;;11.60;99.90;;;;;;4935291;29;20114;-92
2021/12/04 09:25:48;;;;;;;29.98;4.43;;;11.50;99.90;;;;;;4933244;29;20050;-92
2021/12/04 09:28:19;;;;;;;37.97;5.30;;;11.50;99.90;;;;;;4932707;29;20024;-92
2021/12/04 10:01:48;;;;;;;37.47;4.78;;;12.10;99.90;;;;;;4948548;29;19901;-91
2021/12/04 10:24:12;;;;;;;20.45;2.25;;;11.80;99.90;;;;;;4935503;29;20028;-83
2021/12/04 10:34:54;;;;;;;18.48;2.70;;;12.10;99.90;;;;;;4946229;29;20199;-85
2021/12/04 10:37:26;;;;;;;31.27;4.03;;;12.20;99.90;;;;;;4942951;29;20020;-85
2021/12/04 10:39:54;;;;;;;25.70;3.30;;;12.30;99.90;;;;;;4944893;29;20032;-84
2021/12/04 10:42:27;;;;;;;31.40;3.67;;;12.40;99.90;;;;;;4945615;29;20032;-83
2021/12/04 10:44:55;;;;;;;29.48;3.63;;;12.10;99.90;;;;;;4946339;29;20200;-83
2021/12/04 10:47:24;;;;;;;26.92;3.70;;;11.60;99.90;;;;;;4928403;29;20027;-83
2021/12/04 11:40:12;;;;;;;15.93;3.85;;;11.40;99.90;;;;;;4918067;29;20068;-86
2021/12/04 11:42:43;;;;;;;23.88;3.03;;;11.50;99.90;;;;;;4915692;29;20373;-85
2021/12/04 11:47:46;;;;;;;27.65;3.75;;;11.70;99.90;;;;;;4917490;29;20028;-86
2021/12/04 11:50:22;;;;;;;21.58;2.88;;;11.70;99.90;;;;;;4923042;29;20032;-85
2021/12/04 11:52:51;;;;;;;28.02;3.28;;;11.70;99.90;;;;;;4923137;29;20075;-88
2021/12/04 11:55:20;;;;;;;17.73;3.25;;;11.60;99.90;;;;;;4944266;29;20032;-85
2021/12/04 11:57:47;;;;;;;27.17;3.22;;;11.60;99.90;;;;;;4934269;29;20079;-84
2021/12/04 12:00:27;;;;;;;24.65;3.33;;;11.60;99.90;;;;;;4931788;29;20346;-84
2021/12/04 12:03:04;;;;;;;22.63;3.00;;;11.70;99.90;;;;;;4938946;29;20096;-85
2021/12/04 12:05:30;;;;;;;22.98;3.80;;;11.70;99.90;;;;;;4936447;29;20126;-85
2021/12/04 12:07:58;;;;;;;19.45;3.78;;;11.70;99.90;;;;;;4932852;29;20120;-84
2021/12/04 12:10:27;;;;;;;17.02;3.15;;;11.70;99.90;;;;;;4933924;29;20031;-86
2021/12/04 12:13:03;;;;;;;21.20;3.30;;;11.80;99.90;;;;;;4933943;29;20020;-85
2021/12/04 12:15:32;;;;;;;20.02;3.45;;;11.70;99.90;;;;;;4933497;29;20019;-85
2021/12/04 12:18:22;;;;;;;24.08;3.25;;;11.70;99.90;;;;;;4932933;29;20023;-86
2021/12/04 12:20:52;;;;;;;20.20;3.45;;;11.60;99.90;;;;;;4934035;29;20371;-84
2021/12/04 12:23:22;;;;;;;24.23;3.63;;;11.60;99.90;;;;;;4934318;29;20019;-84
2021/12/04 12:34:14;;;;;;;16.73;2.50;;;11.40;99.90;;;;;;4943342;29;20031;-85
2021/12/04 12:36:39;;;;;;;15.75;3.53;;;11.40;99.90;;;;;;4938585;29;20216;-85
2021/12/04 12:39:05;;;;;;;16.67;3.03;;;11.30;99.90;;;;;;4940259;29;20028;-85
2021/12/04 12:41:31;;;;;;;19.08;2.60;;;11.20;99.90;;;;;;4933093;29;20079;-85
2021/12/04 12:44:09;;;;;;;27.00;5.35;;;11.30;99.90;;;;;;4922262;29;20466;-85
2021/12/04 12:46:54;;;;;;;21.92;2.85;;;11.30;99.90;;;;;;4915043;29;20032;-85
2021/12/04 12:49:34;;;;;;;17.58;2.72;;;11.20;99.90;;;;;;4915142;29;20055;-86
2021/12/04 12:52:08;;;;;;;21.55;2.95;;;11.30;99.90;;;;;;4916029;29;20122;-86
2021/12/04 12:54:49;;;;;;;23.88;2.58;;;11.30;99.90;;;;;;4915084;29;20034;-86
2021/12/04 12:57:22;;;;;;;15.90;2.80;;;11.30;99.90;;;;;;4921276;29;20047;-87
2021/12/04 13:11:41;;;;;;;17.55;3.28;;;11.30;99.90;;;;;;4933584;29;20432;-83
2021/12/04 13:14:27;;;;;;;24.95;3.05;;;11.30;99.90;;;;;;4936637;29;20544;-85
2021/12/04 13:17:02;;;;;;;22.80;3.40;;;11.50;99.90;;;;;;4935032;29;20460;-84
2021/12/04 13:19:28;;;;;;;;;;;11.60;99.90;;;;;;4936756;29;20377;-85
2021/12/04 13:21:57;;;;;;;18.83;2.45;;;11.70;99.90;;;;;;4935833;29;19914;-85
2021/12/04 13:24:25;;;;;;;23.08;3.75;;;12.00;99.90;;;;;;4936073;29;20067;-85
2021/12/04 13:26:53;;;;;;;22.60;3.03;;;12.00;99.90;;;;;;4938457;29;20059;-85
2021/12/04 13:29:22;;;;;;;23.42;3.20;;;11.70;99.90;;;;;;4932955;29;20032;-84
2021/12/04 13:31:56;;;;;;;25.40;3.17;;;11.00;99.90;;;;;;4918675;29;20457;-83
2021/12/04 13:34:25;;;;;;;18.07;3.33;;;10.50;99.90;;;;;;4918340;29;20484;-85
2021/12/04 13:36:53;;;;;;;22.80;3.38;;;10.30;99.90;;;;;;4918364;29;20036;-86
2021/12/04 13:39:19;;;;;;;16.35;2.50;;;10.30;99.90;;;;;;4916888;29;20245;-85
2021/12/04 13:41:46;;;;;;;22.60;2.95;;;10.30;99.90;;;;;;4917902;29;20036;-85
2021/12/04 13:44:14;;;;;;;12.90;2.17;;;10.40;99.90;;;;;;4917765;29;20032;-86
2021/12/04 13:46:51;;;;;;;21.85;2.58;;;10.50;99.90;;;;;;4917745;29;20115;-84
2021/12/04 13:49:21;;;;;;;15.38;3.60;;;10.60;99.90;;;;;;4917812;29;20553;-86
2021/12/04 13:51:56;;;;;;;14.93;2.15;;;10.70;99.90;;;;;;4918661;29;20060;-86
2021/12/04 13:54:22;;;;;;;;;;;10.70;99.90;;;;;;4917370;29;20358;-86
2021/12/04 13:56:48;;;;;;;19.02;2.78;;;10.80;99.90;;;;;;4917386;29;19911;-86
2021/12/04 13:59:14;;;;;;;14.70;2.20;;;10.80;99.90;;;;;;4931055;29;20556;-85
2021/12/04 14:01:42;;;;;;;14.88;2.67;;;10.80;99.90;;;;;;4936195;29;20032;-86
2021/12/04 14:04:16;;;;;;;15.65;2.25;;;10.80;99.90;;;;;;4936524;29;20106;-86
2021/12/04 14:06:55;;;;;;;15.98;2.15;;;10.70;99.90;;;;;;4936282;29;20433;-86
2021/12/04 14:09:24;;;;;;;20.20;2.60;;;10.70;99.90;;;;;;4937501;29;20094;-84
2021/12/04 14:11:52;;;;;;;16.30;2.70;;;10.70;99.90;;;;;;4937781;29;20063;-87
2021/12/04 14:14:21;;;;;;;15.20;2.13;;;10.80;99.90;;;;;;4936132;29;20039;-86
2021/12/04 14:16:52;;;;;;;15.55;2.42;;;10.80;99.90;;;;;;4941953;29;20038;-84
2021/12/04 14:19:20;;;;;;;21.65;3.35;;;10.80;99.90;;;;;;4938758;29;20049;-85
2021/12/04 14:21:57;;;;;;;13.00;1.58;;;10.80;99.90;;;;;;4939712;29;20496;-84
2021/12/04 14:24:33;;;;;;;7.03;1.10;;;10.80;99.90;;;;;;4937735;29;20046;-78
2021/12/04 14:27:03;;;;;;;13.50;1.63;;;10.80;99.90;;;;;;4940928;29;20082;-78
2021/12/04 14:29:40;;;;;;;13.93;1.48;;;10.70;99.90;;;;;;4933862;29;20032;-78
2021/12/04 14:32:07;;;;;;;11.80;1.42;;;10.70;99.90;;;;;;4937092;29;20495;-77
2021/12/04 14:34:33;;;;;;;11.93;1.50;;;10.70;99.90;;;;;;4940977;29;20024;-87
2021/12/04 14:37:13;;;;;;;13.93;1.65;;;10.70;99.90;;;;;;4937401;29;20135;-87
2021/12/04 14:39:47;;;;;;;10.60;1.70;;;10.70;99.90;;;;;;4935988;29;20038;-87
2021/12/04 14:42:20;;;;;;;17.35;1.98;;;10.60;99.90;;;;;;4934445;29;20116;-88
2021/12/04 14:44:52;;;;;;;12.43;1.77;;;10.60;99.90;;;;;;4939130;29;20046;-88
2021/12/04 14:47:20;;;;;;;9.98;1.83;;;10.70;99.90;;;;;;4927391;29;20517;-87
2021/12/04 14:49:49;;;;;;;15.50;2.22;;;10.60;99.90;;;;;;4945963;29;20031;-88
2021/12/04 14:52:20;;;;;;;22.80;6.38;;;10.70;99.90;;;;;;4945396;29;20011;-87
2021/12/04 14:54:46;;;;;;;47.13;13.85;;;10.70;99.90;;;;;;4945400;29;20296;-86
2021/12/04 14:57:22;;;;;;;27.02;10.07;;;10.70;99.90;;;;;;4944826;29;20339;-87
2021/12/04 15:00:07;;;;;;;21.60;5.10;;;10.80;99.90;;;;;;4930207;29;20046;-87
2021/12/04 15:02:34;;;;;;;58.65;19.85;;;10.80;99.90;;;;;;4942999;29;20255;-87
2021/12/04 15:05:00;;;;;;;69.05;27.27;;;10.90;99.90;;;;;;4944343;29;20035;-87
2021/12/04 15:07:31;;;;;;;46.15;15.82;;;11.00;99.90;;;;;;4944158;29;20019;-90
2021/12/04 15:09:57;;;;;;;19.63;4.78;;;11.00;99.90;;;;;;4945000;29;20028;-91
2021/12/04 15:12:26;;;;;;;38.53;20.73;;;10.90;99.90;;;;;;4942280;29;20015;-91
2021/12/04 15:14:58;;;;;;;29.73;12.75;;;10.80;99.90;;;;;;4939449;29;20103;-93
2021/12/04 15:17:24;;;;;;;22.58;4.47;;;10.70;99.90;;;;;;4940605;29;20015;-90
2021/12/04 15:19:53;;;;;;;22.88;4.75;;;10.70;99.90;;;;;;4936565;29;20043;-90
2021/12/04 15:22:28;;;;;;;33.45;11.85;;;10.60;99.90;;;;;;4944310;29;20083;-91
2021/12/04 15:24:55;;;;;;;42.92;18.30;;;10.60;99.90;;;;;;4939164;29;20028;-91
2021/12/04 15:27:23;;;;;;;36.45;8.35;;;10.70;99.90;;;;;;4934216;29;20026;-92
2021/12/04 15:29:52;;;;;;;28.05;4.07;;;10.70;99.90;;;;;;4939263;29;20023;-91
2021/12/04 15:32:21;;;;;;;30.00;8.18;;;10.70;99.90;;;;;;4944707;29;20064;-90
2021/12/04 15:35:02;;;;;;;29.65;8.50;;;10.50;99.90;;;;;;4943985;29;20408;-91
2021/12/04 15:38:04;;;;;;;;;;;;;;;;;;;;;
2021/12/04 15:40:59;;;;;;;24.65;11.63;;;9.90;99.90;;;;;;4943682;29;20055;-91
2021/12/04 15:48:03;;;;;;;17.02;6.97;;;9.50;99.90;;;;;;4943313;29;20424;-90
2021/12/04 15:53:57;;;;;;;10.02;1.85;;;9.50;99.90;;;;;;4943781;28;20060;-90
2021/12/04 15:56:32;;;;;;;11.27;3.95;;;9.60;99.90;;;;;;4960692;29;20386;-96
2021/12/04 15:59:07;;;;;;;16.05;7.85;;;9.60;99.90;;;;;;4943869;29;20061;-90
2021/12/04 16:02:39;;;;;;;7.72;1.67;;;9.60;99.90;;;;;;4925521;29;20040;-92
2021/12/04 16:06:22;;;;;;;;;;;;;;;;;;;;;
2021/12/04 16:08:48;;;;;;;11.98;3.72;;;9.50;99.90;;;;;;4924267;29;20277;-85
2021/12/04 16:11:15;;;;;;;6.80;1.67;;;9.50;99.90;;;;;;4923775;29;20031;-87
2021/12/04 16:13:49;;;;;;;13.48;2.67;;;9.40;99.90;;;;;;4923993;29;20028;-90
2021/12/04 16:16:18;;;;;;;12.25;2.47;;;9.40;99.90;;;;;;4925284;29;20023;-88
2021/12/04 16:18:44;;;;;;;12.00;1.60;;;9.40;99.90;;;;;;4939820;29;20035;-92
2021/12/04 16:21:11;;;;;;;12.35;1.77;;;9.30;99.90;;;;;;4939279;29;20068;-87